Time;durP1;ratioP1;P1;durP2;ratioP2;P2;SDS_P1;SDS_P2;PMS_P1;PMS_P2;Temp;Humidity;BMP_temperature;BMP_pressure;BME280_temperature;BME280_humidity;BME280_pressure;Samples;Min_cycle;Max_cycle;Signal;HPM_P1;HPM_P2
2023/08/12 00:00:32;;;;;;;8.02;7.32;;;;;;;;;;5076369;28;20067;-87
2023/08/12 00:02:59;;;;;;;7.75;7.05;;;;;;;;;;5058859;28;20052;-87
2023/08/12 00:05:25;;;;;;;10.10;8.00;;;;;;;;;;5074968;28;20036;-87
2023/08/12 00:07:51;;;;;;;8.25;7.55;;;;;;;;;;5075173;28;20110;-87
2023/08/12 00:10:17;;;;;;;8.93;8.13;;;;;;;;;;5057862;28;20040;-87
2023/08/12 00:12:43;;;;;;;9.65;8.90;;;;;;;;;;5075288;28;20040;-87
2023/08/12 00:15:10;;;;;;;9.50;8.60;;;;;;;;;;5074567;28;20056;-87
2023/08/12 00:17:37;;;;;;;11.43;8.88;;;;;;;;;;5075442;28;20102;-88
2023/08/12 00:20:08;;;;;;;10.27;9.10;;;;;;;;;;5074333;28;20127;-85
2023/08/12 00:22:34;;;;;;;12.93;11.07;;;;;;;;;;5075886;28;20040;-87
2023/08/12 00:25:00;;;;;;;12.13;11.02;;;;;;;;;;5074506;28;20044;-87
2023/08/12 00:27:26;;;;;;;10.68;9.75;;;;;;;;;;5075021;28;20048;-87
2023/08/12 00:29:52;;;;;;;11.32;10.23;;;;;;;;;;5075863;28;20045;-86
2023/08/12 00:32:18;;;;;;;10.43;9.52;;;;;;;;;;5074787;28;20571;-87
2023/08/12 00:34:45;;;;;;;12.57;11.43;;;;;;;;;;5074307;28;20137;-87
2023/08/12 00:37:11;;;;;;;10.77;9.70;;;;;;;;;;5075598;28;20048;-87
2023/08/12 00:39:37;;;;;;;11.18;9.73;;;;;;;;;;5057622;28;20531;-87
2023/08/12 00:42:03;;;;;;;11.07;9.88;;;;;;;;;;5074634;28;20135;-87
2023/08/12 00:44:29;;;;;;;11.30;10.15;;;;;;;;;;5075049;28;20036;-87
2023/08/12 00:46:55;;;;;;;12.63;11.18;;;;;;;;;;5057794;28;20117;-87
2023/08/12 00:49:22;;;;;;;11.40;10.40;;;;;;;;;;5057195;28;20045;-87
2023/08/12 00:51:50;;;;;;;11.07;10.23;;;;;;;;;;5074947;28;20126;-87
2023/08/12 00:54:16;;;;;;;13.70;12.20;;;;;;;;;;5074217;28;20454;-87
2023/08/12 00:56:43;;;;;;;12.27;9.85;;;;;;;;;;5057415;28;20127;-87
2023/08/12 00:59:10;;;;;;;15.32;12.73;;;;;;;;;;5074224;28;20477;-87
2023/08/12 01:01:38;;;;;;;14.55;10.75;;;;;;;;;;5073771;28;20048;-87
2023/08/12 01:04:05;;;;;;;13.05;11.75;;;;;;;;;;5075067;28;20055;-87
2023/08/12 01:06:31;;;;;;;11.80;10.82;;;;;;;;;;5073711;28;20059;-87
2023/08/12 01:08:57;;;;;;;11.73;10.52;;;;;;;;;;5057410;28;20476;-87
2023/08/12 01:11:30;;;;;;;14.70;11.13;;;;;;;;;;5073838;28;20040;-87
2023/08/12 01:14:14;;;;;;;12.35;11.02;;;;;;;;;;5075032;28;20049;-87
2023/08/12 01:16:44;;;;;;;12.38;11.02;;;;;;;;;;5073637;28;20094;-87
2023/08/12 01:19:24;;;;;;;11.57;10.63;;;;;;;;;;5074717;28;20416;-86
2023/08/12 01:21:54;;;;;;;14.00;11.95;;;;;;;;;;5075057;28;20063;-87
2023/08/12 01:24:25;;;;;;;12.88;11.57;;;;;;;;;;5073921;28;20496;-87
2023/08/12 01:26:51;;;;;;;12.15;11.02;;;;;;;;;;5073831;28;20052;-87
2023/08/12 01:29:17;;;;;;;13.43;11.45;;;;;;;;;;5073805;28;20056;-86
2023/08/12 01:31:47;;;;;;;12.98;11.15;;;;;;;;;;5057358;28;20546;-87
2023/08/12 01:34:17;;;;;;;12.88;11.55;;;;;;;;;;5074744;28;20045;-87
2023/08/12 01:36:46;;;;;;;14.10;11.88;;;;;;;;;;5074016;28;20041;-87
2023/08/12 01:39:12;;;;;;;12.52;11.20;;;;;;;;;;5056827;28;20044;-87
2023/08/12 01:41:38;;;;;;;12.07;11.02;;;;;;;;;;5073590;28;20051;-87
2023/08/12 01:44:05;;;;;;;11.57;10.30;;;;;;;;;;5057199;28;20045;-86
2023/08/12 01:46:31;;;;;;;16.63;11.82;;;;;;;;;;5057582;28;20056;-87
2023/08/12 01:48:57;;;;;;;14.07;12.63;;;;;;;;;;5073960;28;20044;-87
2023/08/12 01:51:23;;;;;;;14.00;11.25;;;;;;;;;;5074064;28;20094;-87
2023/08/12 01:53:49;;;;;;;13.85;12.55;;;;;;;;;;5057420;28;20075;-86
2023/08/12 01:56:15;;;;;;;20.98;15.15;;;;;;;;;;5073808;28;20052;-86
2023/08/12 01:58:42;;;;;;;13.50;11.40;;;;;;;;;;5073796;28;20052;-86
2023/08/12 02:01:08;;;;;;;19.27;15.82;;;;;;;;;;5074574;28;20051;-85
2023/08/12 02:03:34;;;;;;;13.75;12.48;;;;;;;;;;5040887;28;20044;-85
2023/08/12 02:06:00;;;;;;;19.42;14.10;;;;;;;;;;5074230;28;20055;-86
2023/08/12 02:08:26;;;;;;;16.52;13.20;;;;;;;;;;5040676;28;20049;-86
2023/08/12 02:10:52;;;;;;;14.32;12.15;;;;;;;;;;5072675;28;20546;-86
2023/08/12 02:13:18;;;;;;;15.45;12.65;;;;;;;;;;5073792;28;20040;-86
2023/08/12 02:15:45;;;;;;;12.73;11.30;;;;;;;;;;5074267;28;20557;-86
2023/08/12 02:18:11;;;;;;;12.82;11.40;;;;;;;;;;5072868;28;20049;-86
2023/08/12 02:20:37;;;;;;;13.65;12.30;;;;;;;;;;5072535;28;20084;-86
2023/08/12 02:23:03;;;;;;;16.10;13.38;;;;;;;;;;5072832;28;20047;-86
2023/08/12 02:25:29;;;;;;;13.23;11.88;;;;;;;;;;5056147;28;20388;-86
2023/08/12 02:27:55;;;;;;;13.95;12.50;;;;;;;;;;5056606;28;20131;-86
2023/08/12 02:30:21;;;;;;;13.50;12.20;;;;;;;;;;5072965;28;20048;-86
2023/08/12 02:32:47;;;;;;;15.45;14.05;;;;;;;;;;5074690;28;20052;-86
2023/08/12 02:35:13;;;;;;;14.45;13.05;;;;;;;;;;5076701;28;20492;-86
2023/08/12 02:37:39;;;;;;;13.85;12.48;;;;;;;;;;5077330;28;20055;-86
2023/08/12 02:40:06;;;;;;;14.55;11.90;;;;;;;;;;5060478;28;20435;-86
2023/08/12 02:42:32;;;;;;;14.20;12.68;;;;;;;;;;5076617;28;20041;-86
2023/08/12 02:44:59;;;;;;;27.48;17.10;;;;;;;;;;5059573;28;20128;-86
2023/08/12 02:47:26;;;;;;;12.60;11.40;;;;;;;;;;5078542;28;20044;-86
2023/08/12 02:49:52;;;;;;;13.02;11.80;;;;;;;;;;5076435;28;20135;-86
2023/08/12 02:52:18;;;;;;;13.73;12.40;;;;;;;;;;5077675;28;20044;-86
2023/08/12 02:54:44;;;;;;;14.10;11.88;;;;;;;;;;5060041;28;20047;-86
2023/08/12 02:57:10;;;;;;;14.00;12.52;;;;;;;;;;5076165;28;20092;-86
2023/08/12 02:59:36;;;;;;;13.13;11.80;;;;;;;;;;5076299;28;20052;-86
2023/08/12 03:02:02;;;;;;;14.20;12.27;;;;;;;;;;5043197;28;20052;-86
2023/08/12 03:04:29;;;;;;;14.88;13.32;;;;;;;;;;5075817;28;20123;-86
2023/08/12 03:06:55;;;;;;;13.40;12.20;;;;;;;;;;5076274;28;20496;-86
2023/08/12 03:09:22;;;;;;;13.30;11.93;;;;;;;;;;5077477;28;20055;-86
2023/08/12 03:11:48;;;;;;;13.77;12.48;;;;;;;;;;5077384;28;20064;-86
2023/08/12 03:14:14;;;;;;;11.35;10.45;;;;;;;;;;5078461;28;20053;-86
2023/08/12 03:16:40;;;;;;;13.82;12.30;;;;;;;;;;5079975;28;20091;-85
2023/08/12 03:19:06;;;;;;;13.20;11.65;;;;;;;;;;5063647;28;20091;-86
2023/08/12 03:21:34;;;;;;;11.40;10.50;;;;;;;;;;5059184;28;20045;-85
2023/08/12 03:24:00;;;;;;;12.30;11.15;;;;;;;;;;5076924;28;20056;-86
2023/08/12 03:26:26;;;;;;;12.98;11.88;;;;;;;;;;5059406;28;20080;-86
2023/08/12 03:28:52;;;;;;;12.48;11.40;;;;;;;;;;5075820;28;20155;-86
2023/08/12 03:31:18;;;;;;;13.15;11.85;;;;;;;;;;5075982;28;20053;-86
2023/08/12 03:33:44;;;;;;;10.82;9.93;;;;;;;;;;5076212;28;20076;-86
2023/08/12 03:36:11;;;;;;;14.75;12.00;;;;;;;;;;5075814;28;20124;-86
2023/08/12 03:38:37;;;;;;;13.25;12.00;;;;;;;;;;5059542;28;20076;-87
2023/08/12 03:41:03;;;;;;;17.92;14.68;;;;;;;;;;5059671;28;20106;-86
2023/08/12 03:43:29;;;;;;;12.07;10.95;;;;;;;;;;5074862;28;20048;-86
2023/08/12 03:45:55;;;;;;;13.65;12.30;;;;;;;;;;5074570;28;20408;-86
2023/08/12 03:48:21;;;;;;;12.98;11.63;;;;;;;;;;5059062;28;20040;-86
2023/08/12 03:50:48;;;;;;;13.20;12.10;;;;;;;;;;5058334;28;20561;-86
2023/08/12 03:53:14;;;;;;;15.45;12.98;;;;;;;;;;5076231;28;20140;-86
2023/08/12 03:55:40;;;;;;;14.10;12.70;;;;;;;;;;5075416;28;20055;-87
2023/08/12 03:58:06;;;;;;;13.55;12.30;;;;;;;;;;5058338;28;20071;-87
2023/08/12 04:00:34;;;;;;;16.83;14.52;;;;;;;;;;5058791;28;20044;-86
2023/08/12 04:03:01;;;;;;;15.15;13.20;;;;;;;;;;5076557;28;20084;-87
2023/08/12 04:05:27;;;;;;;15.15;13.52;;;;;;;;;;5041517;28;20438;-87
2023/08/12 04:07:54;;;;;;;15.25;13.75;;;;;;;;;;5041784;28;20048;-87
2023/08/12 04:10:20;;;;;;;15.48;14.15;;;;;;;;;;5076364;28;20052;-86
2023/08/12 04:12:46;;;;;;;21.88;17.70;;;;;;;;;;5075746;28;20488;-87
2023/08/12 04:15:12;;;;;;;27.02;20.52;;;;;;;;;;5075079;28;20055;-87
2023/08/12 04:17:40;;;;;;;26.77;21.10;;;;;;;;;;5058568;28;20162;-87
2023/08/12 04:20:07;;;;;;;20.65;17.95;;;;;;;;;;5058035;28;20094;-86
2023/08/12 04:22:34;;;;;;;30.15;21.17;;;;;;;;;;5075039;28;20136;-87
2023/08/12 04:25:00;;;;;;;18.92;17.02;;;;;;;;;;5075570;28;20154;-87
2023/08/12 04:27:26;;;;;;;18.20;16.30;;;;;;;;;;5058202;28;20072;-86
2023/08/12 04:29:52;;;;;;;18.02;16.13;;;;;;;;;;5057759;28;20088;-87
2023/08/12 04:32:18;;;;;;;19.58;17.75;;;;;;;;;;5074820;28;20044;-87
2023/08/12 04:34:45;;;;;;;19.58;17.05;;;;;;;;;;5058794;28;20040;-87
2023/08/12 04:37:11;;;;;;;21.85;18.08;;;;;;;;;;5075427;28;20170;-86
2023/08/12 04:39:37;;;;;;;19.35;17.40;;;;;;;;;;5057657;28;20045;-87
2023/08/12 04:42:03;;;;;;;21.40;17.17;;;;;;;;;;5056683;28;20083;-86
2023/08/12 04:44:29;;;;;;;19.70;17.65;;;;;;;;;;5057706;28;20041;-87
2023/08/12 04:46:55;;;;;;;20.30;18.30;;;;;;;;;;5075557;28;20131;-86
2023/08/12 04:49:23;;;;;;;20.38;18.27;;;;;;;;;;5057692;28;20051;-87
2023/08/12 04:51:52;;;;;;;21.13;18.65;;;;;;;;;;5074235;28;20044;-87
2023/08/12 04:54:18;;;;;;;22.15;19.92;;;;;;;;;;5074494;28;20059;-86
2023/08/12 04:56:44;;;;;;;22.10;19.77;;;;;;;;;;5057386;28;20396;-86
2023/08/12 04:59:10;;;;;;;30.52;25.02;;;;;;;;;;5074390;28;20381;-86
2023/08/12 05:01:37;;;;;;;23.70;21.42;;;;;;;;;;5074162;28;20052;-86
2023/08/12 05:04:03;;;;;;;22.90;19.40;;;;;;;;;;5074006;28;20041;-86
2023/08/12 05:06:29;;;;;;;22.90;20.50;;;;;;;;;;5074242;28;20055;-87
2023/08/12 05:08:55;;;;;;;24.25;21.75;;;;;;;;;;5074581;28;20453;-86
2023/08/12 05:11:21;;;;;;;22.70;20.48;;;;;;;;;;5074928;28;20051;-86
2023/08/12 05:13:47;;;;;;;23.95;21.58;;;;;;;;;;5057608;28;20044;-88
2023/08/12 05:16:13;;;;;;;23.50;21.10;;;;;;;;;;5073114;28;20190;-87
2023/08/12 05:18:39;;;;;;;24.00;20.95;;;;;;;;;;5089184;28;20052;-87
2023/08/12 05:21:05;;;;;;;24.55;21.98;;;;;;;;;;5055078;28;20052;-88
2023/08/12 05:23:31;;;;;;;26.15;23.38;;;;;;;;;;5057180;28;20048;-87
2023/08/12 05:25:57;;;;;;;25.27;22.73;;;;;;;;;;5057370;28;20036;-87
2023/08/12 05:28:23;;;;;;;25.13;22.55;;;;;;;;;;5057138;28;20051;-87
2023/08/12 05:30:49;;;;;;;28.25;24.63;;;;;;;;;;5073645;28;20084;-87
2023/08/12 05:33:16;;;;;;;25.27;22.85;;;;;;;;;;5073569;28;20045;-87
2023/08/12 05:35:42;;;;;;;26.88;24.25;;;;;;;;;;5073802;28;20369;-87
2023/08/12 05:38:08;;;;;;;27.42;24.42;;;;;;;;;;5073999;28;20049;-87
2023/08/12 05:40:34;;;;;;;24.52;22.35;;;;;;;;;;5074705;28;20498;-87
2023/08/12 05:43:00;;;;;;;27.85;25.17;;;;;;;;;;5056608;28;20052;-87
2023/08/12 05:45:26;;;;;;;25.33;22.75;;;;;;;;;;5073487;28;20045;-86
2023/08/12 05:47:52;;;;;;;35.08;29.60;;;;;;;;;;5040408;28;20048;-87
2023/08/12 05:50:18;;;;;;;26.55;23.88;;;;;;;;;;5039947;28;20049;-87
2023/08/12 05:52:44;;;;;;;30.13;26.73;;;;;;;;;;5040708;28;20056;-86
2023/08/12 05:55:10;;;;;;;28.00;25.33;;;;;;;;;;5040307;28;20479;-86
2023/08/12 05:57:36;;;;;;;28.30;25.40;;;;;;;;;;5074155;28;20040;-86
2023/08/12 06:00:03;;;;;;;26.77;24.27;;;;;;;;;;5040417;28;20055;-86
2023/08/12 06:02:29;;;;;;;27.10;24.50;;;;;;;;;;5057395;28;20076;-86
2023/08/12 06:04:55;;;;;;;30.00;27.00;;;;;;;;;;5075113;28;20048;-86
2023/08/12 06:07:23;;;;;;;26.63;24.23;;;;;;;;;;5075573;28;20052;-86
2023/08/12 06:09:49;;;;;;;27.67;24.92;;;;;;;;;;5077232;28;20048;-86
2023/08/12 06:12:16;;;;;;;27.25;24.55;;;;;;;;;;5077246;28;20190;-86
2023/08/12 06:14:42;;;;;;;28.42;25.63;;;;;;;;;;5077103;28;20056;-86
2023/08/12 06:17:08;;;;;;;27.98;25.17;;;;;;;;;;5076619;28;20052;-86
2023/08/12 06:19:34;;;;;;;28.13;25.50;;;;;;;;;;5060080;28;20053;-86
2023/08/12 06:22:00;;;;;;;29.17;26.33;;;;;;;;;;5077183;28;20150;-86
2023/08/12 06:24:26;;;;;;;30.48;27.48;;;;;;;;;;5060639;28;20055;-86
2023/08/12 06:26:52;;;;;;;29.48;26.42;;;;;;;;;;5060443;28;20041;-85
2023/08/12 06:29:19;;;;;;;31.13;27.92;;;;;;;;;;5076835;28;20480;-85
2023/08/12 06:31:45;;;;;;;28.45;25.90;;;;;;;;;;5043174;28;20504;-86
2023/08/12 06:34:11;;;;;;;30.20;27.40;;;;;;;;;;5077051;28;20054;-86
2023/08/12 06:36:37;;;;;;;27.92;25.42;;;;;;;;;;5077402;28;20041;-85
2023/08/12 06:39:03;;;;;;;28.27;25.58;;;;;;;;;;5076613;28;20078;-85
2023/08/12 06:41:29;;;;;;;27.50;25.00;;;;;;;;;;5076820;28;20044;-85
2023/08/12 06:43:56;;;;;;;28.90;26.17;;;;;;;;;;5076905;28;20047;-85
2023/08/12 06:46:22;;;;;;;27.88;25.30;;;;;;;;;;5059751;28;20131;-85
2023/08/12 06:48:48;;;;;;;28.40;25.80;;;;;;;;;;5077164;28;20481;-85
2023/08/12 06:51:14;;;;;;;26.77;24.40;;;;;;;;;;5076142;28;20053;-85
2023/08/12 06:53:40;;;;;;;26.63;24.17;;;;;;;;;;5077296;28;20055;-85
2023/08/12 06:56:07;;;;;;;27.70;25.00;;;;;;;;;;5075894;28;20508;-85
2023/08/12 06:58:33;;;;;;;30.95;27.77;;;;;;;;;;5076392;28;20189;-86
2023/08/12 07:00:59;;;;;;;25.90;23.38;;;;;;;;;;5043154;28;20041;-86
2023/08/12 07:03:25;;;;;;;26.52;23.98;;;;;;;;;;5077335;28;20443;-86
2023/08/12 07:05:52;;;;;;;26.13;23.80;;;;;;;;;;5076337;28;20055;-85
2023/08/12 07:08:18;;;;;;;24.88;22.35;;;;;;;;;;5076145;28;20049;-85
2023/08/12 07:10:44;;;;;;;25.90;23.48;;;;;;;;;;5059542;28;20051;-85
2023/08/12 07:13:10;;;;;;;26.77;24.08;;;;;;;;;;5059812;28;20052;-85
2023/08/12 07:15:36;;;;;;;23.48;21.40;;;;;;;;;;5076839;28;20531;-86
2023/08/12 07:18:02;;;;;;;22.05;19.88;;;;;;;;;;5077092;28;20116;-85
2023/08/12 07:20:28;;;;;;;22.92;20.80;;;;;;;;;;5042308;28;20098;-85
2023/08/12 07:22:55;;;;;;;21.70;19.55;;;;;;;;;;5075838;28;20044;-85
2023/08/12 07:25:22;;;;;;;20.95;18.90;;;;;;;;;;5075754;28;20484;-85
2023/08/12 07:27:48;;;;;;;20.33;18.40;;;;;;;;;;5059341;28;20044;-85
2023/08/12 07:30:14;;;;;;;20.45;18.30;;;;;;;;;;5076233;28;20067;-85
2023/08/12 07:32:40;;;;;;;19.42;17.52;;;;;;;;;;5075753;28;20071;-84
2023/08/12 07:35:06;;;;;;;20.63;18.70;;;;;;;;;;5075689;28;20143;-85
2023/08/12 07:37:33;;;;;;;20.25;18.38;;;;;;;;;;5076419;28;20044;-85
2023/08/12 07:39:59;;;;;;;19.85;17.80;;;;;;;;;;5076699;28;20056;-85
2023/08/12 07:42:25;;;;;;;19.88;17.95;;;;;;;;;;5078020;28;20044;-85
2023/08/12 07:44:51;;;;;;;19.45;17.48;;;;;;;;;;5075052;28;20098;-86
2023/08/12 07:47:17;;;;;;;19.33;17.40;;;;;;;;;;5076158;28;20048;-86
2023/08/12 07:49:43;;;;;;;19.38;17.48;;;;;;;;;;5074989;28;20548;-86
2023/08/12 07:52:09;;;;;;;19.45;17.48;;;;;;;;;;5074866;28;20048;-86
2023/08/12 07:54:36;;;;;;;20.02;18.13;;;;;;;;;;5058545;28;20472;-87
2023/08/12 07:57:02;;;;;;;21.10;18.92;;;;;;;;;;5074805;28;20503;-86
2023/08/12 07:59:28;;;;;;;18.88;17.15;;;;;;;;;;5075301;28;20060;-86
2023/08/12 08:01:54;;;;;;;21.92;19.70;;;;;;;;;;5075714;28;20538;-86
2023/08/12 08:04:21;;;;;;;20.67;18.65;;;;;;;;;;5075486;28;20049;-85
2023/08/12 08:06:47;;;;;;;20.52;18.52;;;;;;;;;;5076919;28;20127;-88
2023/08/12 08:09:13;;;;;;;19.70;17.85;;;;;;;;;;5076709;28;20051;-83
2023/08/12 08:11:39;;;;;;;20.65;18.65;;;;;;;;;;5058650;28;20134;-84
2023/08/12 08:14:05;;;;;;;22.30;20.05;;;;;;;;;;5075980;28;20063;-85
2023/08/12 08:16:31;;;;;;;25.77;22.95;;;;;;;;;;5081113;28;20052;-86
2023/08/12 08:38:30;;;;;;;25.35;22.92;;;;;;;;;;5024020;27;1987837;-77
2023/08/12 08:40:58;;;;;;;23.00;20.98;;;;;;;;;;5053572;28;20139;-77
2023/08/12 08:43:24;;;;;;;22.50;20.52;;;;;;;;;;5053021;28;20044;-78
2023/08/12 08:45:53;;;;;;;23.38;21.25;;;;;;;;;;5070870;28;20106;-78
2023/08/12 08:48:19;;;;;;;23.40;21.25;;;;;;;;;;5070622;28;20053;-77
2023/08/12 08:50:46;;;;;;;22.55;20.70;;;;;;;;;;5070842;28;20040;-76
2023/08/12 08:53:12;;;;;;;23.65;21.50;;;;;;;;;;5070058;28;20076;-76
2023/08/12 08:55:40;;;;;;;22.60;20.70;;;;;;;;;;5052553;28;20055;-77
2023/08/12 08:58:06;;;;;;;22.38;20.50;;;;;;;;;;5051867;28;20045;-76
2023/08/12 09:00:33;;;;;;;21.10;19.23;;;;;;;;;;5070098;28;20554;-75
2023/08/12 09:02:59;;;;;;;20.25;18.40;;;;;;;;;;5069773;28;20076;-74
2023/08/12 09:05:27;;;;;;;21.83;19.75;;;;;;;;;;5070574;28;20483;-74
2023/08/12 09:07:54;;;;;;;21.67;19.88;;;;;;;;;;5052687;28;20131;-73
2023/08/12 09:10:21;;;;;;;20.73;18.85;;;;;;;;;;5070142;28;20044;-73
2023/08/12 09:12:47;;;;;;;19.75;18.25;;;;;;;;;;5070335;28;20134;-74
2023/08/12 09:15:14;;;;;;;30.17;23.40;;;;;;;;;;5069883;28;20059;-74
2023/08/12 09:17:40;;;;;;;19.42;17.80;;;;;;;;;;5051985;28;20032;-74
2023/08/12 09:20:11;;;;;;;19.00;17.35;;;;;;;;;;5069753;28;20036;-75
2023/08/12 09:22:38;;;;;;;15.10;13.80;;;;;;;;;;5052325;28;20044;-75
2023/08/12 09:25:04;;;;;;;15.77;14.23;;;;;;;;;;5068674;28;20472;-74
2023/08/12 09:27:31;;;;;;;12.02;11.10;;;;;;;;;;5069449;28;20041;-74
2023/08/12 09:29:57;;;;;;;11.95;10.90;;;;;;;;;;5070018;28;20467;-75
2023/08/12 09:32:24;;;;;;;11.23;9.50;;;;;;;;;;5052366;28;20041;-74
2023/08/12 09:34:51;;;;;;;9.27;8.68;;;;;;;;;;5069862;28;20087;-75
2023/08/12 09:37:18;;;;;;;10.00;9.13;;;;;;;;;;5051991;28;20057;-82
2023/08/12 09:39:48;;;;;;;10.40;9.30;;;;;;;;;;5052002;28;20048;-80
2023/08/12 09:42:14;;;;;;;35.45;19.55;;;;;;;;;;5051788;28;20055;-79
2023/08/12 09:44:41;;;;;;;10.18;9.48;;;;;;;;;;5035623;28;20037;-76
2023/08/12 09:47:10;;;;;;;6.05;5.55;;;;;;;;;;5051762;28;20499;-77
2023/08/12 09:49:37;;;;;;;7.50;4.65;;;;;;;;;;5040185;28;20089;-78
2023/08/12 09:52:04;;;;;;;6.45;5.38;;;;;;;;;;5056104;28;20044;-75
2023/08/12 09:54:32;;;;;;;5.03;4.65;;;;;;;;;;5038178;28;20099;-74
2023/08/12 09:56:59;;;;;;;5.35;4.95;;;;;;;;;;5056258;28;20037;-75
2023/08/12 09:59:26;;;;;;;5.25;4.93;;;;;;;;;;5015379;28;20099;-77
2023/08/12 10:01:53;;;;;;;3.92;3.67;;;;;;;;;;5075555;28;20040;-75
2023/08/12 10:04:22;;;;;;;5.40;3.45;;;;;;;;;;5065803;28;20038;-75
2023/08/12 10:06:49;;;;;;;7.72;4.55;;;;;;;;;;5062203;28;20041;-75
2023/08/12 10:09:18;;;;;;;4.82;4.40;;;;;;;;;;5037861;28;20118;-76
2023/08/12 10:11:45;;;;;;;7.20;6.43;;;;;;;;;;5038440;28;20040;-74
2023/08/12 10:14:11;;;;;;;7.38;6.68;;;;;;;;;;5056051;28;20044;-74
2023/08/12 10:16:37;;;;;;;5.90;5.50;;;;;;;;;;5055471;28;20503;-76
2023/08/12 10:19:05;;;;;;;5.10;4.80;;;;;;;;;;5021552;28;20052;-76
2023/08/12 10:21:32;;;;;;;3.67;3.38;;;;;;;;;;5037113;28;20045;-74
2023/08/12 10:24:00;;;;;;;4.38;3.15;;;;;;;;;;5054428;28;20433;-79
2023/08/12 10:26:27;;;;;;;5.63;5.07;;;;;;;;;;5037841;28;20048;-75
2023/08/12 10:28:54;;;;;;;5.45;3.95;;;;;;;;;;5055673;28;20048;-78
2023/08/12 10:31:20;;;;;;;3.70;3.50;;;;;;;;;;5037749;28;20383;-80
2023/08/12 10:33:49;;;;;;;9.43;5.60;;;;;;;;;;5037535;28;20040;-80
2023/08/12 10:36:19;;;;;;;8.88;5.15;;;;;;;;;;5037518;28;20040;-75
2023/08/12 10:38:45;;;;;;;4.93;4.53;;;;;;;;;;5037375;28;20545;-74
2023/08/12 10:41:16;;;;;;;1.23;1.20;;;;;;;;;;5055165;28;20260;-75
2023/08/12 10:43:55;;;;;;;1.00;0.50;;;;;;;;;;5037553;28;20049;-76
2023/08/12 10:46:22;;;;;;;0.30;0.30;;;;;;;;;;5037799;28;20404;-75
2023/08/12 10:49:06;;;;;;;0.43;0.30;;;;;;;;;;5054747;28;20040;-77
2023/08/12 10:51:44;;;;;;;0.52;0.40;;;;;;;;;;5055519;28;20052;-77
2023/08/12 10:54:31;;;;;;;1.40;0.38;;;;;;;;;;5037295;28;20043;-76
2023/08/12 10:57:03;;;;;;;1.40;0.43;;;;;;;;;;5037468;28;20037;-77
2023/08/12 10:59:47;;;;;;;0.47;0.30;;;;;;;;;;5054952;28;20053;-79
2023/08/12 11:02:16;;;;;;;0.20;0.20;;;;;;;;;;5037482;28;20384;-79
2023/08/12 11:04:42;;;;;;;0.40;0.20;;;;;;;;;;5035257;28;20037;-81
2023/08/12 11:07:16;;;;;;;0.20;0.20;;;;;;;;;;5018834;28;20090;-81
2023/08/12 11:09:42;;;;;;;0.10;0.10;;;;;;;;;;5017922;28;20099;-81
2023/08/12 11:12:09;;;;;;;0.28;0.10;;;;;;;;;;5019736;28;20275;-80
2023/08/12 11:14:48;;;;;;;0.95;0.10;;;;;;;;;;5036678;28;20473;-81
2023/08/12 11:17:14;;;;;;;0.47;0.10;;;;;;;;;;5036575;28;20076;-80
2023/08/12 11:19:41;;;;;;;0.38;0.10;;;;;;;;;;5037105;28;20049;-80
2023/08/12 11:22:08;;;;;;;0.98;0.10;;;;;;;;;;5036043;28;20044;-80
2023/08/12 11:24:35;;;;;;;0.20;0.10;;;;;;;;;;5034144;28;20175;-80
2023/08/12 11:27:02;;;;;;;0.10;0.10;;;;;;;;;;5035409;28;20081;-81
2023/08/12 11:29:28;;;;;;;0.03;0.00;;;;;;;;;;5025449;28;20033;-80
2023/08/12 11:31:55;;;;;;;0.20;0.10;;;;;;;;;;5033786;28;20064;-82
2023/08/12 11:34:21;;;;;;;0.30;0.10;;;;;;;;;;5018490;28;20041;-76
2023/08/12 11:36:47;;;;;;;0.20;0.10;;;;;;;;;;5032526;28;20037;-76
2023/08/12 11:39:13;;;;;;;0.17;0.00;;;;;;;;;;5040167;28;20234;-79
2023/08/12 11:41:40;;;;;;;0.63;0.10;;;;;;;;;;5040214;28;20057;-78
2023/08/12 11:44:06;;;;;;;0.20;0.10;;;;;;;;;;5033357;28;20047;-77
2023/08/12 11:46:35;;;;;;;0.32;0.32;;;;;;;;;;5033483;28;20052;-79
2023/08/12 11:49:01;;;;;;;0.70;0.10;;;;;;;;;;5027715;28;20131;-80
2023/08/12 11:51:27;;;;;;;0.15;0.08;;;;;;;;;;5033340;28;20794;-81
2023/08/12 11:53:53;;;;;;;0.00;0.00;;;;;;;;;;5017381;28;20040;-80
2023/08/12 11:56:20;;;;;;;0.10;0.00;;;;;;;;;;5029106;28;20475;-80
2023/08/12 11:58:53;;;;;;;0.10;0.10;;;;;;;;;;5021735;28;20040;-80
2023/08/12 12:01:19;;;;;;;0.00;0.00;;;;;;;;;;5037029;28;20059;-80
2023/08/12 12:03:45;;;;;;;0.25;0.10;;;;;;;;;;5025486;28;20052;-80
2023/08/12 12:06:12;;;;;;;0.40;0.10;;;;;;;;;;5038086;28;20496;-80
2023/08/12 12:08:39;;;;;;;0.30;0.10;;;;;;;;;;5034875;28;20047;-82
2023/08/12 12:11:06;;;;;;;0.10;0.10;;;;;;;;;;5034855;28;20138;-81
2023/08/12 12:13:32;;;;;;;0.20;0.10;;;;;;;;;;5035091;28;20029;-81
2023/08/12 12:15:59;;;;;;;0.20;0.20;;;;;;;;;;5002589;28;20530;-80
2023/08/12 12:18:26;;;;;;;0.10;0.10;;;;;;;;;;5035412;28;20041;-81
2023/08/12 12:20:58;;;;;;;0.13;0.05;;;;;;;;;;5016500;28;20966;-81
2023/08/12 12:23:28;;;;;;;0.08;0.08;;;;;;;;;;5021537;28;20037;-80
2023/08/12 12:25:59;;;;;;;0.20;0.10;;;;;;;;;;5045042;28;20041;-80
2023/08/12 12:28:25;;;;;;;0.20;0.20;;;;;;;;;;5019922;28;20043;-80
2023/08/12 12:30:51;;;;;;;0.65;0.20;;;;;;;;;;5029207;28;20094;-80
2023/08/12 12:33:17;;;;;;;0.70;0.20;;;;;;;;;;5019102;28;20041;-80
2023/08/12 12:35:43;;;;;;;0.88;0.30;;;;;;;;;;5035993;28;20050;-80
2023/08/12 12:38:09;;;;;;;0.57;0.40;;;;;;;;;;5035273;28;20053;-80
2023/08/12 12:40:37;;;;;;;0.63;0.45;;;;;;;;;;5035901;28;20044;-80
2023/08/12 12:43:04;;;;;;;1.75;0.50;;;;;;;;;;5049079;28;21030;-81
2023/08/12 12:45:30;;;;;;;0.77;0.40;;;;;;;;;;5035054;28;20041;-80
2023/08/12 12:47:56;;;;;;;2.60;0.30;;;;;;;;;;5019747;28;20045;-80
2023/08/12 12:50:22;;;;;;;1.08;0.40;;;;;;;;;;5038125;28;20059;-81
2023/08/12 12:52:48;;;;;;;1.15;0.30;;;;;;;;;;5035358;28;20048;-81
2023/08/12 12:55:14;;;;;;;0.73;0.40;;;;;;;;;;5035004;28;20033;-81
2023/08/12 12:57:40;;;;;;;0.95;0.50;;;;;;;;;;5018767;28;20040;-81
2023/08/12 13:00:11;;;;;;;0.70;0.40;;;;;;;;;;5034959;28;20037;-81
2023/08/12 13:02:37;;;;;;;0.52;0.30;;;;;;;;;;5034961;28;20052;-81
2023/08/12 13:05:03;;;;;;;1.25;0.40;;;;;;;;;;5035229;28;20072;-81
2023/08/12 13:07:29;;;;;;;1.75;0.40;;;;;;;;;;5035203;28;20037;-82
2023/08/12 13:09:55;;;;;;;2.38;0.40;;;;;;;;;;5035298;28;20148;-81
2023/08/12 13:12:22;;;;;;;2.03;0.40;;;;;;;;;;5034928;28;20036;-81
2023/08/12 13:14:48;;;;;;;1.80;0.47;;;;;;;;;;5035149;28;20376;-81
2023/08/12 13:17:14;;;;;;;3.70;0.60;;;;;;;;;;5033328;28;20036;-81
2023/08/12 13:19:40;;;;;;;1.58;0.50;;;;;;;;;;4999183;28;20050;-81
2023/08/12 13:22:06;;;;;;;4.70;0.30;;;;;;;;;;4984770;28;20057;-81
2023/08/12 13:24:32;;;;;;;1.33;0.40;;;;;;;;;;5054867;28;20052;-81
2023/08/12 13:26:58;;;;;;;1.45;0.40;;;;;;;;;;5022584;28;20051;-81
2023/08/12 13:29:25;;;;;;;3.53;0.40;;;;;;;;;;5027525;28;20033;-81
2023/08/12 13:31:52;;;;;;;2.78;0.50;;;;;;;;;;5014350;28;20464;-81
2023/08/12 13:34:18;;;;;;;2.58;0.40;;;;;;;;;;5042043;28;20046;-80
2023/08/12 13:36:44;;;;;;;2.60;0.50;;;;;;;;;;5025816;28;20045;-81
2023/08/12 13:39:10;;;;;;;2.70;0.73;;;;;;;;;;5018625;28;20396;-80
2023/08/12 13:41:36;;;;;;;3.42;0.45;;;;;;;;;;5019024;28;20477;-80
2023/08/12 13:44:03;;;;;;;2.33;0.43;;;;;;;;;;5002853;28;20042;-81
2023/08/12 13:46:29;;;;;;;1.67;0.50;;;;;;;;;;5038846;28;20086;-80
2023/08/12 13:48:55;;;;;;;1.45;0.30;;;;;;;;;;5038882;28;20056;-81
2023/08/12 13:51:21;;;;;;;1.95;0.60;;;;;;;;;;5038880;28;20045;-81
2023/08/12 13:53:47;;;;;;;2.90;0.40;;;;;;;;;;5038226;28;20488;-82
2023/08/12 13:56:13;;;;;;;3.65;0.50;;;;;;;;;;5022144;28;20126;-81
2023/08/12 13:58:40;;;;;;;3.08;0.50;;;;;;;;;;5038373;28;20041;-81
2023/08/12 14:01:06;;;;;;;2.50;0.50;;;;;;;;;;5038454;28;20045;-81
2023/08/12 14:03:33;;;;;;;2.92;0.50;;;;;;;;;;5022101;28;20055;-81
2023/08/12 14:05:59;;;;;;;2.45;0.63;;;;;;;;;;5038628;28;20072;-81
2023/08/12 14:08:25;;;;;;;2.85;0.40;;;;;;;;;;5005522;28;20488;-81
2023/08/12 14:10:51;;;;;;;4.15;0.50;;;;;;;;;;5038485;28;20037;-81
2023/08/12 14:13:17;;;;;;;2.97;0.70;;;;;;;;;;5021735;28;20123;-81
2023/08/12 14:15:43;;;;;;;3.10;0.63;;;;;;;;;;5038964;28;20045;-81
2023/08/12 14:18:09;;;;;;;4.32;0.80;;;;;;;;;;5038224;28;20530;-81
2023/08/12 14:20:35;;;;;;;1.77;0.50;;;;;;;;;;5021810;28;20041;-81
2023/08/12 14:23:01;;;;;;;5.15;0.47;;;;;;;;;;5021726;28;20045;-82
2023/08/12 14:25:28;;;;;;;3.75;0.50;;;;;;;;;;5037631;28;20127;-81
2023/08/12 14:27:54;;;;;;;2.22;0.65;;;;;;;;;;5021516;28;20045;-81
2023/08/12 14:30:23;;;;;;;3.65;0.60;;;;;;;;;;5021559;28;20040;-81
2023/08/12 14:32:49;;;;;;;4.00;0.85;;;;;;;;;;5038024;28;20040;-81
2023/08/12 14:35:16;;;;;;;1.85;0.80;;;;;;;;;;5037900;28;20083;-81
2023/08/12 14:37:42;;;;;;;3.90;0.63;;;;;;;;;;5037628;28;20061;-81
2023/08/12 14:40:09;;;;;;;4.90;0.82;;;;;;;;;;5037851;28;20048;-81
2023/08/12 14:42:35;;;;;;;2.28;0.60;;;;;;;;;;5037564;28;20045;-81